sensor_id;sensor_type;location;lat;lon;timestamp;P1;durP1;ratioP1;P2;durP2;ratioP2
6358;SDS011;3212;51.460;11.868;2024-02-23T00:03:01;0.80;;;0.80;;
6358;SDS011;3212;51.460;11.868;2024-02-23T00:06:23;0.80;;;0.77;;
6358;SDS011;3212;51.460;11.868;2024-02-23T00:09:46;0.73;;;0.70;;
6358;SDS011;3212;51.460;11.868;2024-02-23T00:13:09;1.77;;;0.70;;
6358;SDS011;3212;51.460;11.868;2024-02-23T00:16:36;1.07;;;0.90;;
6358;SDS011;3212;51.460;11.868;2024-02-23T00:19:55;3.93;;;0.90;;
6358;SDS011;3212;51.460;11.868;2024-02-23T00:23:17;1.80;;;0.90;;
6358;SDS011;3212;51.460;11.868;2024-02-23T00:26:39;1.00;;;0.90;;
6358;SDS011;3212;51.460;11.868;2024-02-23T00:30:03;0.80;;;0.80;;
6358;SDS011;3212;51.460;11.868;2024-02-23T00:33:26;0.60;;;0.60;;
6358;SDS011;3212;51.460;11.868;2024-02-23T00:36:48;0.70;;;0.70;;
6358;SDS011;3212;51.460;11.868;2024-02-23T00:40:11;1.67;;;0.60;;
6358;SDS011;3212;51.460;11.868;2024-02-23T00:43:38;4.53;;;0.80;;
6358;SDS011;3212;51.460;11.868;2024-02-23T00:47:00;0.90;;;0.70;;
6358;SDS011;3212;51.460;11.868;2024-02-23T00:50:23;0.70;;;0.60;;
6358;SDS011;3212;51.460;11.868;2024-02-23T00:53:46;2.00;;;0.70;;
6358;SDS011;3212;51.460;11.868;2024-02-23T00:57:09;1.27;;;0.60;;
6358;SDS011;3212;51.460;11.868;2024-02-23T01:00:31;1.53;;;0.60;;
6358;SDS011;3212;51.460;11.868;2024-02-23T01:03:54;1.07;;;0.70;;
6358;SDS011;3212;51.460;11.868;2024-02-23T01:07:16;1.27;;;0.60;;
6358;SDS011;3212;51.460;11.868;2024-02-23T01:10:39;0.60;;;0.60;;
6358;SDS011;3212;51.460;11.868;2024-02-23T01:14:02;1.07;;;0.60;;
6358;SDS011;3212;51.460;11.868;2024-02-23T01:17:25;0.83;;;0.40;;
6358;SDS011;3212;51.460;11.868;2024-02-23T01:20:48;1.40;;;0.70;;
6358;SDS011;3212;51.460;11.868;2024-02-23T01:24:12;0.57;;;0.50;;
6358;SDS011;3212;51.460;11.868;2024-02-23T01:27:34;0.60;;;0.50;;
6358;SDS011;3212;51.460;11.868;2024-02-23T01:30:56;0.70;;;0.50;;
6358;SDS011;3212;51.460;11.868;2024-02-23T01:34:20;1.00;;;0.50;;
6358;SDS011;3212;51.460;11.868;2024-02-23T01:37:42;0.67;;;0.50;;
6358;SDS011;3212;51.460;11.868;2024-02-23T01:41:05;0.93;;;0.50;;
6358;SDS011;3212;51.460;11.868;2024-02-23T01:44:28;0.70;;;0.50;;
6358;SDS011;3212;51.460;11.868;2024-02-23T01:47:51;0.90;;;0.60;;
6358;SDS011;3212;51.460;11.868;2024-02-23T01:51:13;2.70;;;0.50;;
6358;SDS011;3212;51.460;11.868;2024-02-23T01:54:36;2.20;;;0.50;;
6358;SDS011;3212;51.460;11.868;2024-02-23T01:57:59;0.65;;;0.50;;
6358;SDS011;3212;51.460;11.868;2024-02-23T02:01:21;3.60;;;0.60;;
6358;SDS011;3212;51.460;11.868;2024-02-23T02:04:44;0.80;;;0.60;;
6358;SDS011;3212;51.460;11.868;2024-02-23T02:08:06;0.90;;;0.50;;
6358;SDS011;3212;51.460;11.868;2024-02-23T02:11:28;2.00;;;0.50;;
6358;SDS011;3212;51.460;11.868;2024-02-23T02:14:51;0.97;;;0.50;;
6358;SDS011;3212;51.460;11.868;2024-02-23T02:18:13;0.60;;;0.50;;
6358;SDS011;3212;51.460;11.868;2024-02-23T02:21:36;0.60;;;0.50;;
6358;SDS011;3212;51.460;11.868;2024-02-23T02:24:59;1.43;;;0.57;;
6358;SDS011;3212;51.460;11.868;2024-02-23T02:28:22;1.33;;;0.50;;
6358;SDS011;3212;51.460;11.868;2024-02-23T02:31:44;1.15;;;0.50;;
6358;SDS011;3212;51.460;11.868;2024-02-23T02:35:07;0.80;;;0.50;;
6358;SDS011;3212;51.460;11.868;2024-02-23T02:38:29;1.00;;;0.60;;
6358;SDS011;3212;51.460;11.868;2024-02-23T02:41:52;0.97;;;0.60;;
6358;SDS011;3212;51.460;11.868;2024-02-23T02:45:15;2.20;;;0.70;;
6358;SDS011;3212;51.460;11.868;2024-02-23T02:48:37;1.53;;;0.60;;
6358;SDS011;3212;51.460;11.868;2024-02-23T02:52:00;0.60;;;0.50;;
6358;SDS011;3212;51.460;11.868;2024-02-23T02:55:23;0.80;;;0.50;;
6358;SDS011;3212;51.460;11.868;2024-02-23T02:58:45;1.37;;;0.60;;
6358;SDS011;3212;51.460;11.868;2024-02-23T03:02:08;0.60;;;0.60;;
6358;SDS011;3212;51.460;11.868;2024-02-23T03:05:30;0.77;;;0.77;;
6358;SDS011;3212;51.460;11.868;2024-02-23T03:08:53;0.50;;;0.50;;
6358;SDS011;3212;51.460;11.868;2024-02-23T03:12:15;0.80;;;0.60;;
6358;SDS011;3212;51.460;11.868;2024-02-23T03:15:38;0.77;;;0.57;;
6358;SDS011;3212;51.460;11.868;2024-02-23T03:19:01;0.87;;;0.60;;
6358;SDS011;3212;51.460;11.868;2024-02-23T03:22:24;0.60;;;0.60;;
6358;SDS011;3212;51.460;11.868;2024-02-23T03:25:47;0.60;;;0.53;;
6358;SDS011;3212;51.460;11.868;2024-02-23T03:29:10;0.80;;;0.60;;
6358;SDS011;3212;51.460;11.868;2024-02-23T03:32:32;1.03;;;0.60;;
6358;SDS011;3212;51.460;11.868;2024-02-23T03:35:55;1.20;;;0.80;;
6358;SDS011;3212;51.460;11.868;2024-02-23T03:39:18;1.60;;;0.67;;
6358;SDS011;3212;51.460;11.868;2024-02-23T03:42:40;1.50;;;0.60;;
6358;SDS011;3212;51.460;11.868;2024-02-23T03:46:03;0.70;;;0.60;;
6358;SDS011;3212;51.460;11.868;2024-02-23T03:49:25;1.07;;;0.60;;
6358;SDS011;3212;51.460;11.868;2024-02-23T03:52:47;0.90;;;0.60;;
6358;SDS011;3212;51.460;11.868;2024-02-23T03:56:16;0.50;;;0.40;;
6358;SDS011;3212;51.460;11.868;2024-02-23T03:59:39;0.70;;;0.70;;
6358;SDS011;3212;51.460;11.868;2024-02-23T04:03:01;0.80;;;0.50;;
6358;SDS011;3212;51.460;11.868;2024-02-23T04:06:24;1.60;;;0.70;;
6358;SDS011;3212;51.460;11.868;2024-02-23T04:09:47;0.60;;;0.50;;
6358;SDS011;3212;51.460;11.868;2024-02-23T04:13:10;0.60;;;0.50;;
6358;SDS011;3212;51.460;11.868;2024-02-23T04:16:33;0.90;;;0.60;;
6358;SDS011;3212;51.460;11.868;2024-02-23T04:19:55;0.50;;;0.40;;
6358;SDS011;3212;51.460;11.868;2024-02-23T04:23:20;0.60;;;0.50;;
6358;SDS011;3212;51.460;11.868;2024-02-23T04:26:42;0.80;;;0.50;;
6358;SDS011;3212;51.460;11.868;2024-02-23T04:30:05;0.70;;;0.50;;
6358;SDS011;3212;51.460;11.868;2024-02-23T04:33:33;2.00;;;0.50;;
6358;SDS011;3212;51.460;11.868;2024-02-23T04:36:55;0.60;;;0.50;;
6358;SDS011;3212;51.460;11.868;2024-02-23T04:40:18;1.33;;;0.60;;
6358;SDS011;3212;51.460;11.868;2024-02-23T04:43:41;0.57;;;0.50;;
6358;SDS011;3212;51.460;11.868;2024-02-23T04:47:04;0.80;;;0.60;;
6358;SDS011;3212;51.460;11.868;2024-02-23T04:50:26;1.10;;;0.50;;
6358;SDS011;3212;51.460;11.868;2024-02-23T04:53:49;0.60;;;0.40;;
6358;SDS011;3212;51.460;11.868;2024-02-23T04:57:12;1.20;;;0.40;;
6358;SDS011;3212;51.460;11.868;2024-02-23T05:00:34;0.73;;;0.50;;
6358;SDS011;3212;51.460;11.868;2024-02-23T05:03:58;0.57;;;0.47;;
6358;SDS011;3212;51.460;11.868;2024-02-23T05:07:20;0.60;;;0.50;;
6358;SDS011;3212;51.460;11.868;2024-02-23T05:10:43;0.57;;;0.40;;
6358;SDS011;3212;51.460;11.868;2024-02-23T05:14:05;1.53;;;0.40;;
6358;SDS011;3212;51.460;11.868;2024-02-23T05:17:27;0.70;;;0.40;;
6358;SDS011;3212;51.460;11.868;2024-02-23T05:20:50;1.00;;;0.47;;
6358;SDS011;3212;51.460;11.868;2024-02-23T05:24:13;0.57;;;0.47;;
6358;SDS011;3212;51.460;11.868;2024-02-23T05:27:36;0.50;;;0.50;;
6358;SDS011;3212;51.460;11.868;2024-02-23T05:30:59;0.50;;;0.40;;
6358;SDS011;3212;51.460;11.868;2024-02-23T05:34:21;0.60;;;0.40;;
6358;SDS011;3212;51.460;11.868;2024-02-23T05:37:44;1.90;;;0.50;;
6358;SDS011;3212;51.460;11.868;2024-02-23T05:41:06;0.80;;;0.40;;
6358;SDS011;3212;51.460;11.868;2024-02-23T05:44:29;0.60;;;0.50;;
6358;SDS011;3212;51.460;11.868;2024-02-23T05:47:52;0.50;;;0.40;;
6358;SDS011;3212;51.460;11.868;2024-02-23T05:51:14;4.27;;;0.50;;
6358;SDS011;3212;51.460;11.868;2024-02-23T05:54:37;0.53;;;0.40;;
6358;SDS011;3212;51.460;11.868;2024-02-23T05:58:00;1.00;;;0.60;;
6358;SDS011;3212;51.460;11.868;2024-02-23T06:01:22;0.60;;;0.40;;
6358;SDS011;3212;51.460;11.868;2024-02-23T06:04:44;0.70;;;0.50;;
6358;SDS011;3212;51.460;11.868;2024-02-23T06:08:08;0.60;;;0.50;;
6358;SDS011;3212;51.460;11.868;2024-02-23T06:11:30;0.60;;;0.50;;
6358;SDS011;3212;51.460;11.868;2024-02-23T06:14:53;0.50;;;0.40;;
6358;SDS011;3212;51.460;11.868;2024-02-23T06:18:16;0.60;;;0.47;;
6358;SDS011;3212;51.460;11.868;2024-02-23T06:21:38;0.70;;;0.40;;
6358;SDS011;3212;51.460;11.868;2024-02-23T06:25:01;1.43;;;0.60;;
6358;SDS011;3212;51.460;11.868;2024-02-23T06:28:23;1.03;;;0.50;;
6358;SDS011;3212;51.460;11.868;2024-02-23T06:31:46;2.07;;;0.50;;
6358;SDS011;3212;51.460;11.868;2024-02-23T06:35:09;0.60;;;0.50;;
6358;SDS011;3212;51.460;11.868;2024-02-23T06:38:31;2.70;;;0.60;;
6358;SDS011;3212;51.460;11.868;2024-02-23T06:41:54;0.80;;;0.50;;
6358;SDS011;3212;51.460;11.868;2024-02-23T06:45:16;0.60;;;0.50;;
6358;SDS011;3212;51.460;11.868;2024-02-23T06:48:39;0.53;;;0.50;;
6358;SDS011;3212;51.460;11.868;2024-02-23T06:52:01;0.60;;;0.50;;
6358;SDS011;3212;51.460;11.868;2024-02-23T06:55:24;0.80;;;0.50;;
6358;SDS011;3212;51.460;11.868;2024-02-23T06:58:47;1.20;;;0.57;;
6358;SDS011;3212;51.460;11.868;2024-02-23T07:02:10;0.80;;;0.50;;
6358;SDS011;3212;51.460;11.868;2024-02-23T07:05:32;0.80;;;0.57;;
6358;SDS011;3212;51.460;11.868;2024-02-23T07:08:55;1.47;;;0.53;;
6358;SDS011;3212;51.460;11.868;2024-02-23T07:12:17;1.17;;;0.60;;
6358;SDS011;3212;51.460;11.868;2024-02-23T07:15:40;2.20;;;0.60;;
6358;SDS011;3212;51.460;11.868;2024-02-23T07:19:03;1.73;;;0.60;;
6358;SDS011;3212;51.460;11.868;2024-02-23T07:22:26;0.83;;;0.50;;
6358;SDS011;3212;51.460;11.868;2024-02-23T07:25:49;1.67;;;0.50;;
6358;SDS011;3212;51.460;11.868;2024-02-23T07:29:12;1.57;;;0.60;;
6358;SDS011;3212;51.460;11.868;2024-02-23T07:32:35;3.03;;;0.70;;
6358;SDS011;3212;51.460;11.868;2024-02-23T07:35:58;1.47;;;0.60;;
6358;SDS011;3212;51.460;11.868;2024-02-23T07:39:20;0.70;;;0.60;;
6358;SDS011;3212;51.460;11.868;2024-02-23T07:42:43;2.00;;;0.50;;
6358;SDS011;3212;51.460;11.868;2024-02-23T07:46:05;3.17;;;0.87;;
6358;SDS011;3212;51.460;11.868;2024-02-23T07:49:28;1.07;;;0.50;;
6358;SDS011;3212;51.460;11.868;2024-02-23T07:52:51;0.80;;;0.80;;
6358;SDS011;3212;51.460;11.868;2024-02-23T07:56:13;0.57;;;0.40;;
6358;SDS011;3212;51.460;11.868;2024-02-23T07:59:35;1.33;;;0.70;;
6358;SDS011;3212;51.460;11.868;2024-02-23T08:02:58;1.20;;;0.50;;
6358;SDS011;3212;51.460;11.868;2024-02-23T08:06:20;1.57;;;0.57;;
6358;SDS011;3212;51.460;11.868;2024-02-23T08:09:43;2.13;;;0.70;;
6358;SDS011;3212;51.460;11.868;2024-02-23T08:13:05;1.33;;;0.60;;
6358;SDS011;3212;51.460;11.868;2024-02-23T08:16:28;0.60;;;0.50;;
6358;SDS011;3212;51.460;11.868;2024-02-23T08:19:51;2.00;;;0.60;;
6358;SDS011;3212;51.460;11.868;2024-02-23T08:23:13;1.87;;;0.60;;
6358;SDS011;3212;51.460;11.868;2024-02-23T08:26:36;0.87;;;0.60;;
6358;SDS011;3212;51.460;11.868;2024-02-23T08:29:58;0.80;;;0.70;;
6358;SDS011;3212;51.460;11.868;2024-02-23T08:33:21;1.10;;;0.60;;
6358;SDS011;3212;51.460;11.868;2024-02-23T08:36:44;0.90;;;0.50;;
6358;SDS011;3212;51.460;11.868;2024-02-23T08:40:08;1.73;;;1.10;;
6358;SDS011;3212;51.460;11.868;2024-02-23T08:43:31;2.60;;;0.70;;
6358;SDS011;3212;51.460;11.868;2024-02-23T08:46:53;1.53;;;0.60;;
6358;SDS011;3212;51.460;11.868;2024-02-23T08:50:16;1.00;;;0.60;;
6358;SDS011;3212;51.460;11.868;2024-02-23T08:53:39;2.30;;;0.80;;
6358;SDS011;3212;51.460;11.868;2024-02-23T08:57:01;0.60;;;0.50;;
6358;SDS011;3212;51.460;11.868;2024-02-23T09:00:23;0.73;;;0.57;;
6358;SDS011;3212;51.460;11.868;2024-02-23T09:03:46;3.03;;;0.70;;
6358;SDS011;3212;51.460;11.868;2024-02-23T09:07:09;0.60;;;0.60;;
6358;SDS011;3212;51.460;11.868;2024-02-23T09:10:31;1.70;;;0.70;;
6358;SDS011;3212;51.460;11.868;2024-02-23T09:13:54;0.80;;;0.60;;
6358;SDS011;3212;51.460;11.868;2024-02-23T09:17:17;0.73;;;0.63;;
6358;SDS011;3212;51.460;11.868;2024-02-23T09:20:39;3.73;;;0.90;;
6358;SDS011;3212;51.460;11.868;2024-02-23T09:24:02;2.70;;;0.50;;
6358;SDS011;3212;51.460;11.868;2024-02-23T09:27:25;1.80;;;0.53;;
6358;SDS011;3212;51.460;11.868;2024-02-23T09:30:48;0.80;;;0.60;;
6358;SDS011;3212;51.460;11.868;2024-02-23T09:34:11;1.10;;;0.70;;
6358;SDS011;3212;51.460;11.868;2024-02-23T09:37:35;1.50;;;0.80;;
6358;SDS011;3212;51.460;11.868;2024-02-23T09:40:57;1.10;;;0.60;;
6358;SDS011;3212;51.460;11.868;2024-02-23T09:44:19;0.60;;;0.60;;
6358;SDS011;3212;51.460;11.868;2024-02-23T09:47:42;0.70;;;0.63;;
6358;SDS011;3212;51.460;11.868;2024-02-23T09:51:05;5.60;;;0.80;;
6358;SDS011;3212;51.460;11.868;2024-02-23T09:54:27;1.47;;;0.60;;
6358;SDS011;3212;51.460;11.868;2024-02-23T09:57:51;2.73;;;0.70;;
6358;SDS011;3212;51.460;11.868;2024-02-23T10:01:12;0.60;;;0.57;;
6358;SDS011;3212;51.460;11.868;2024-02-23T10:04:35;1.37;;;0.60;;
6358;SDS011;3212;51.460;11.868;2024-02-23T10:07:58;11.83;;;0.60;;
6358;SDS011;3212;51.460;11.868;2024-02-23T10:11:21;4.30;;;1.90;;
6358;SDS011;3212;51.460;11.868;2024-02-23T10:14:43;1.70;;;0.80;;
6358;SDS011;3212;51.460;11.868;2024-02-23T10:18:06;0.70;;;0.70;;
6358;SDS011;3212;51.460;11.868;2024-02-23T10:21:32;1.70;;;1.10;;
6358;SDS011;3212;51.460;11.868;2024-02-23T10:24:53;0.60;;;0.50;;
6358;SDS011;3212;51.460;11.868;2024-02-23T10:28:15;1.10;;;0.90;;
6358;SDS011;3212;51.460;11.868;2024-02-23T10:31:38;1.97;;;0.83;;
6358;SDS011;3212;51.460;11.868;2024-02-23T10:35:02;2.53;;;1.20;;
6358;SDS011;3212;51.460;11.868;2024-02-23T10:38:26;1.43;;;0.67;;
6358;SDS011;3212;51.460;11.868;2024-02-23T10:41:54;0.70;;;0.60;;
6358;SDS011;3212;51.460;11.868;2024-02-23T10:45:15;1.10;;;0.60;;
6358;SDS011;3212;51.460;11.868;2024-02-23T10:48:39;0.70;;;0.50;;
6358;SDS011;3212;51.460;11.868;2024-02-23T10:52:02;2.03;;;0.80;;
6358;SDS011;3212;51.460;11.868;2024-02-23T10:55:24;1.90;;;0.80;;
6358;SDS011;3212;51.460;11.868;2024-02-23T10:58:47;0.73;;;0.73;;
6358;SDS011;3212;51.460;11.868;2024-02-23T11:02:09;0.87;;;0.70;;
6358;SDS011;3212;51.460;11.868;2024-02-23T11:05:32;1.53;;;0.60;;
6358;SDS011;3212;51.460;11.868;2024-02-23T11:09:04;2.80;;;0.80;;
6358;SDS011;3212;51.460;11.868;2024-02-23T11:12:23;0.50;;;0.50;;
6358;SDS011;3212;51.460;11.868;2024-02-23T11:15:46;1.10;;;0.70;;
6358;SDS011;3212;51.460;11.868;2024-02-23T11:19:08;1.47;;;0.70;;
6358;SDS011;3212;51.460;11.868;2024-02-23T11:22:33;0.77;;;0.57;;
6358;SDS011;3212;51.460;11.868;2024-02-23T11:25:58;0.63;;;0.50;;
6358;SDS011;3212;51.460;11.868;2024-02-23T11:29:20;1.93;;;0.60;;
6358;SDS011;3212;51.460;11.868;2024-02-23T11:32:43;0.80;;;0.70;;
6358;SDS011;3212;51.460;11.868;2024-02-23T11:36:06;0.67;;;0.50;;
6358;SDS011;3212;51.460;11.868;2024-02-23T11:39:30;1.37;;;0.60;;
6358;SDS011;3212;51.460;11.868;2024-02-23T11:42:54;2.03;;;0.63;;
6358;SDS011;3212;51.460;11.868;2024-02-23T11:46:16;1.90;;;0.80;;
6358;SDS011;3212;51.460;11.868;2024-02-23T11:49:39;1.93;;;0.70;;
6358;SDS011;3212;51.460;11.868;2024-02-23T11:53:01;1.30;;;0.80;;
6358;SDS011;3212;51.460;11.868;2024-02-23T11:56:24;1.23;;;1.03;;
6358;SDS011;3212;51.460;11.868;2024-02-23T11:59:47;1.00;;;0.70;;
6358;SDS011;3212;51.460;11.868;2024-02-23T12:03:09;0.70;;;0.60;;
6358;SDS011;3212;51.460;11.868;2024-02-23T12:06:32;1.53;;;0.50;;
6358;SDS011;3212;51.460;11.868;2024-02-23T12:09:55;1.70;;;0.67;;
6358;SDS011;3212;51.460;11.868;2024-02-23T12:13:18;2.20;;;0.80;;
6358;SDS011;3212;51.460;11.868;2024-02-23T12:16:40;2.70;;;1.40;;
6358;SDS011;3212;51.460;11.868;2024-02-23T12:20:04;0.70;;;0.63;;
6358;SDS011;3212;51.460;11.868;2024-02-23T12:27:04;0.90;;;0.60;;
6358;SDS011;3212;51.460;11.868;2024-02-23T12:30:27;1.27;;;0.80;;
6358;SDS011;3212;51.460;11.868;2024-02-23T12:33:49;2.10;;;0.73;;
6358;SDS011;3212;51.460;11.868;2024-02-23T12:37:15;3.50;;;0.77;;
6358;SDS011;3212;51.460;11.868;2024-02-23T12:40:37;2.83;;;0.80;;
6358;SDS011;3212;51.460;11.868;2024-02-23T12:44:00;2.57;;;1.00;;
6358;SDS011;3212;51.460;11.868;2024-02-23T12:47:22;1.10;;;1.00;;
6358;SDS011;3212;51.460;11.868;2024-02-23T12:50:45;1.60;;;0.80;;
6358;SDS011;3212;51.460;11.868;2024-02-23T12:54:08;1.23;;;0.80;;
6358;SDS011;3212;51.460;11.868;2024-02-23T12:57:30;2.03;;;0.60;;
6358;SDS011;3212;51.460;11.868;2024-02-23T13:00:53;2.53;;;0.93;;
6358;SDS011;3212;51.460;11.868;2024-02-23T13:04:15;4.97;;;1.23;;
6358;SDS011;3212;51.460;11.868;2024-02-23T13:07:38;1.40;;;0.80;;
6358;SDS011;3212;51.460;11.868;2024-02-23T13:11:01;0.90;;;0.70;;
6358;SDS011;3212;51.460;11.868;2024-02-23T13:14:23;0.70;;;0.67;;
6358;SDS011;3212;51.460;11.868;2024-02-23T13:17:46;1.03;;;0.60;;
6358;SDS011;3212;51.460;11.868;2024-02-23T13:21:09;1.30;;;0.90;;
6358;SDS011;3212;51.460;11.868;2024-02-23T13:24:32;1.50;;;0.80;;
6358;SDS011;3212;51.460;11.868;2024-02-23T13:27:55;1.40;;;0.80;;
6358;SDS011;3212;51.460;11.868;2024-02-23T13:31:17;0.77;;;0.70;;
6358;SDS011;3212;51.460;11.868;2024-02-23T13:34:40;2.27;;;0.70;;
6358;SDS011;3212;51.460;11.868;2024-02-23T13:38:02;0.90;;;0.80;;
6358;SDS011;3212;51.460;11.868;2024-02-23T13:41:25;2.00;;;0.70;;
6358;SDS011;3212;51.460;11.868;2024-02-23T13:44:48;2.80;;;1.00;;
6358;SDS011;3212;51.460;11.868;2024-02-23T13:48:10;1.60;;;0.63;;
6358;SDS011;3212;51.460;11.868;2024-02-23T13:51:33;0.87;;;0.80;;
6358;SDS011;3212;51.460;11.868;2024-02-23T13:54:55;1.10;;;0.80;;
6358;SDS011;3212;51.460;11.868;2024-02-23T13:58:18;0.80;;;0.73;;
6358;SDS011;3212;51.460;11.868;2024-02-23T14:01:40;1.93;;;0.73;;
6358;SDS011;3212;51.460;11.868;2024-02-23T14:05:04;1.53;;;0.80;;
6358;SDS011;3212;51.460;11.868;2024-02-23T14:08:26;2.07;;;0.70;;
6358;SDS011;3212;51.460;11.868;2024-02-23T14:11:50;0.80;;;0.70;;
6358;SDS011;3212;51.460;11.868;2024-02-23T14:15:12;1.10;;;0.60;;
6358;SDS011;3212;51.460;11.868;2024-02-23T14:18:35;1.10;;;0.80;;
6358;SDS011;3212;51.460;11.868;2024-02-23T14:21:57;2.80;;;0.97;;
6358;SDS011;3212;51.460;11.868;2024-02-23T14:25:20;1.00;;;0.70;;
6358;SDS011;3212;51.460;11.868;2024-02-23T14:28:42;1.53;;;0.80;;
6358;SDS011;3212;51.460;11.868;2024-02-23T14:32:05;1.00;;;0.83;;
6358;SDS011;3212;51.460;11.868;2024-02-23T14:35:27;1.80;;;1.00;;
6358;SDS011;3212;51.460;11.868;2024-02-23T14:38:50;0.80;;;0.80;;
6358;SDS011;3212;51.460;11.868;2024-02-23T14:42:13;2.00;;;0.90;;
6358;SDS011;3212;51.460;11.868;2024-02-23T14:45:35;0.90;;;0.70;;
6358;SDS011;3212;51.460;11.868;2024-02-23T14:48:58;0.90;;;0.70;;
6358;SDS011;3212;51.460;11.868;2024-02-23T14:52:21;3.07;;;0.60;;
6358;SDS011;3212;51.460;11.868;2024-02-23T14:55:43;1.43;;;0.60;;
6358;SDS011;3212;51.460;11.868;2024-02-23T14:59:06;1.77;;;0.80;;
6358;SDS011;3212;51.460;11.868;2024-02-23T15:02:29;3.37;;;0.90;;
6358;SDS011;3212;51.460;11.868;2024-02-23T15:05:51;1.40;;;0.70;;
6358;SDS011;3212;51.460;11.868;2024-02-23T15:09:13;1.40;;;0.70;;
6358;SDS011;3212;51.460;11.868;2024-02-23T15:12:36;1.10;;;0.63;;
6358;SDS011;3212;51.460;11.868;2024-02-23T15:15:58;2.90;;;0.80;;
6358;SDS011;3212;51.460;11.868;2024-02-23T15:19:21;1.10;;;0.80;;
6358;SDS011;3212;51.460;11.868;2024-02-23T15:22:44;0.77;;;0.70;;
6358;SDS011;3212;51.460;11.868;2024-02-23T15:26:07;0.90;;;0.70;;
6358;SDS011;3212;51.460;11.868;2024-02-23T15:29:30;1.40;;;0.67;;
6358;SDS011;3212;51.460;11.868;2024-02-23T15:32:52;6.13;;;0.80;;
6358;SDS011;3212;51.460;11.868;2024-02-23T15:36:15;0.80;;;0.70;;
6358;SDS011;3212;51.460;11.868;2024-02-23T15:39:37;1.77;;;1.10;;
6358;SDS011;3212;51.460;11.868;2024-02-23T15:43:00;1.80;;;1.53;;
6358;SDS011;3212;51.460;11.868;2024-02-23T15:46:23;5.47;;;1.40;;
6358;SDS011;3212;51.460;11.868;2024-02-23T15:49:46;2.90;;;1.80;;
6358;SDS011;3212;51.460;11.868;2024-02-23T15:53:08;3.37;;;1.37;;
6358;SDS011;3212;51.460;11.868;2024-02-23T15:56:31;1.40;;;0.90;;
6358;SDS011;3212;51.460;11.868;2024-02-23T15:59:54;1.47;;;1.10;;
6358;SDS011;3212;51.460;11.868;2024-02-23T16:03:16;1.47;;;1.00;;
6358;SDS011;3212;51.460;11.868;2024-02-23T16:06:39;1.77;;;0.90;;
6358;SDS011;3212;51.460;11.868;2024-02-23T16:10:01;0.80;;;0.63;;
6358;SDS011;3212;51.460;11.868;2024-02-23T16:13:24;2.60;;;0.80;;
6358;SDS011;3212;51.460;11.868;2024-02-23T16:16:46;4.60;;;1.17;;
6358;SDS011;3212;51.460;11.868;2024-02-23T16:20:09;1.33;;;0.70;;
6358;SDS011;3212;51.460;11.868;2024-02-23T16:23:31;1.00;;;0.70;;
6358;SDS011;3212;51.460;11.868;2024-02-23T16:26:54;0.80;;;0.60;;
6358;SDS011;3212;51.460;11.868;2024-02-23T16:30:16;6.17;;;0.93;;
6358;SDS011;3212;51.460;11.868;2024-02-23T16:33:39;2.30;;;1.17;;
6358;SDS011;3212;51.460;11.868;2024-02-23T16:37:02;1.10;;;1.00;;
6358;SDS011;3212;51.460;11.868;2024-02-23T16:40:23;4.83;;;1.30;;
6358;SDS011;3212;51.460;11.868;2024-02-23T16:43:49;2.10;;;1.10;;
6358;SDS011;3212;51.460;11.868;2024-02-23T16:47:11;2.43;;;0.93;;
6358;SDS011;3212;51.460;11.868;2024-02-23T16:50:35;6.47;;;1.00;;
6358;SDS011;3212;51.460;11.868;2024-02-23T16:53:57;5.37;;;1.77;;
6358;SDS011;3212;51.460;11.868;2024-02-23T16:57:19;2.83;;;2.33;;
6358;SDS011;3212;51.460;11.868;2024-02-23T17:00:42;5.17;;;1.70;;
6358;SDS011;3212;51.460;11.868;2024-02-23T17:04:05;1.77;;;1.10;;
6358;SDS011;3212;51.460;11.868;2024-02-23T17:07:28;5.03;;;2.43;;
6358;SDS011;3212;51.460;11.868;2024-02-23T17:10:50;6.37;;;2.03;;
6358;SDS011;3212;51.460;11.868;2024-02-23T17:14:13;4.37;;;2.50;;
6358;SDS011;3212;51.460;11.868;2024-02-23T17:17:37;9.03;;;4.00;;
6358;SDS011;3212;51.460;11.868;2024-02-23T17:20:59;8.20;;;4.73;;
6358;SDS011;3212;51.460;11.868;2024-02-23T17:24:22;2.47;;;1.63;;
6358;SDS011;3212;51.460;11.868;2024-02-23T17:27:45;4.57;;;1.10;;
6358;SDS011;3212;51.460;11.868;2024-02-23T17:31:08;3.00;;;1.65;;
6358;SDS011;3212;51.460;11.868;2024-02-23T17:34:30;3.73;;;1.80;;
6358;SDS011;3212;51.460;11.868;2024-02-23T17:37:53;4.17;;;2.33;;
6358;SDS011;3212;51.460;11.868;2024-02-23T17:41:15;1.67;;;0.90;;
6358;SDS011;3212;51.460;11.868;2024-02-23T17:44:38;1.20;;;1.10;;
6358;SDS011;3212;51.460;11.868;2024-02-23T17:48:01;1.33;;;1.13;;
6358;SDS011;3212;51.460;11.868;2024-02-23T17:51:23;3.20;;;1.17;;
6358;SDS011;3212;51.460;11.868;2024-02-23T17:54:46;2.53;;;1.50;;
6358;SDS011;3212;51.460;11.868;2024-02-23T17:58:09;2.33;;;1.50;;
6358;SDS011;3212;51.460;11.868;2024-02-23T18:01:32;10.77;;;5.63;;
6358;SDS011;3212;51.460;11.868;2024-02-23T18:04:54;13.53;;;2.97;;
6358;SDS011;3212;51.460;11.868;2024-02-23T18:08:17;6.43;;;2.53;;
6358;SDS011;3212;51.460;11.868;2024-02-23T18:11:40;2.43;;;1.37;;
6358;SDS011;3212;51.460;11.868;2024-02-23T18:15:02;4.67;;;2.07;;
6358;SDS011;3212;51.460;11.868;2024-02-23T18:18:25;10.23;;;2.70;;
6358;SDS011;3212;51.460;11.868;2024-02-23T18:21:48;8.37;;;3.70;;
6358;SDS011;3212;51.460;11.868;2024-02-23T18:25:10;9.13;;;3.70;;
6358;SDS011;3212;51.460;11.868;2024-02-23T18:28:33;8.27;;;3.50;;
6358;SDS011;3212;51.460;11.868;2024-02-23T18:31:55;8.23;;;3.23;;
6358;SDS011;3212;51.460;11.868;2024-02-23T18:35:18;4.83;;;2.33;;
6358;SDS011;3212;51.460;11.868;2024-02-23T18:38:42;3.73;;;2.10;;
6358;SDS011;3212;51.460;11.868;2024-02-23T18:42:04;3.80;;;1.70;;
6358;SDS011;3212;51.460;11.868;2024-02-23T18:45:26;3.97;;;1.93;;
6358;SDS011;3212;51.460;11.868;2024-02-23T18:48:50;4.10;;;2.10;;
6358;SDS011;3212;51.460;11.868;2024-02-23T18:52:14;5.63;;;2.40;;
6358;SDS011;3212;51.460;11.868;2024-02-23T18:55:36;7.83;;;3.93;;
6358;SDS011;3212;51.460;11.868;2024-02-23T18:58:59;8.37;;;3.37;;
6358;SDS011;3212;51.460;11.868;2024-02-23T19:02:21;8.17;;;3.60;;
6358;SDS011;3212;51.460;11.868;2024-02-23T19:05:44;6.68;;;3.50;;
6358;SDS011;3212;51.460;11.868;2024-02-23T19:09:09;4.70;;;3.03;;
6358;SDS011;3212;51.460;11.868;2024-02-23T19:12:33;3.20;;;2.50;;
6358;SDS011;3212;51.460;11.868;2024-02-23T19:15:55;5.57;;;2.73;;
6358;SDS011;3212;51.460;11.868;2024-02-23T19:19:18;4.93;;;2.40;;
6358;SDS011;3212;51.460;11.868;2024-02-23T19:22:41;4.43;;;2.10;;
6358;SDS011;3212;51.460;11.868;2024-02-23T19:26:03;4.93;;;1.70;;
6358;SDS011;3212;51.460;11.868;2024-02-23T19:29:26;1.83;;;1.53;;
6358;SDS011;3212;51.460;11.868;2024-02-23T19:32:48;2.23;;;1.20;;
6358;SDS011;3212;51.460;11.868;2024-02-23T19:36:11;1.60;;;1.40;;
6358;SDS011;3212;51.460;11.868;2024-02-23T19:39:34;3.20;;;1.53;;
6358;SDS011;3212;51.460;11.868;2024-02-23T19:42:56;2.97;;;1.23;;
6358;SDS011;3212;51.460;11.868;2024-02-23T19:46:19;2.63;;;1.23;;
6358;SDS011;3212;51.460;11.868;2024-02-23T19:49:42;1.97;;;1.10;;
6358;SDS011;3212;51.460;11.868;2024-02-23T19:53:06;2.23;;;1.17;;
6358;SDS011;3212;51.460;11.868;2024-02-23T19:56:29;1.93;;;1.30;;
6358;SDS011;3212;51.460;11.868;2024-02-23T19:59:52;2.33;;;1.10;;
6358;SDS011;3212;51.460;11.868;2024-02-23T20:03:15;1.97;;;1.20;;
6358;SDS011;3212;51.460;11.868;2024-02-23T20:06:37;1.83;;;1.20;;
6358;SDS011;3212;51.460;11.868;2024-02-23T20:10:01;2.00;;;1.27;;
6358;SDS011;3212;51.460;11.868;2024-02-23T20:13:23;1.90;;;1.40;;
6358;SDS011;3212;51.460;11.868;2024-02-23T20:16:46;4.60;;;2.10;;
6358;SDS011;3212;51.460;11.868;2024-02-23T20:20:08;5.00;;;2.40;;
6358;SDS011;3212;51.460;11.868;2024-02-23T20:23:31;2.80;;;2.10;;
6358;SDS011;3212;51.460;11.868;2024-02-23T20:26:54;3.57;;;2.30;;
6358;SDS011;3212;51.460;11.868;2024-02-23T20:30:16;3.03;;;2.30;;
6358;SDS011;3212;51.460;11.868;2024-02-23T20:33:38;3.77;;;2.17;;
6358;SDS011;3212;51.460;11.868;2024-02-23T20:37:01;3.13;;;1.83;;
6358;SDS011;3212;51.460;11.868;2024-02-23T20:40:24;6.37;;;1.47;;
6358;SDS011;3212;51.460;11.868;2024-02-23T20:43:47;2.50;;;1.40;;